sensor_id;sensor_type;location;lat;lon;timestamp;P1;durP1;ratioP1;P2;durP2;ratioP2
34765;SDS011;20984;43.508;1.504;2023-04-06T00:01:36;16.13;;;9.70;;
34765;SDS011;20984;43.508;1.504;2023-04-06T00:04:02;15.93;;;10.00;;
34765;SDS011;20984;43.508;1.504;2023-04-06T00:06:28;12.25;;;9.48;;
34765;SDS011;20984;43.508;1.504;2023-04-06T00:08:54;16.38;;;10.93;;
34765;SDS011;20984;43.508;1.504;2023-04-06T00:11:20;16.08;;;10.13;;
34765;SDS011;20984;43.508;1.504;2023-04-06T00:13:47;15.27;;;10.90;;
34765;SDS011;20984;43.508;1.504;2023-04-06T00:16:12;15.90;;;10.82;;
34765;SDS011;20984;43.508;1.504;2023-04-06T00:18:38;14.18;;;10.30;;
34765;SDS011;20984;43.508;1.504;2023-04-06T00:21:04;16.05;;;9.77;;
34765;SDS011;20984;43.508;1.504;2023-04-06T00:23:30;13.75;;;9.18;;
34765;SDS011;20984;43.508;1.504;2023-04-06T00:25:56;13.48;;;9.35;;
34765;SDS011;20984;43.508;1.504;2023-04-06T00:28:22;16.83;;;10.02;;
34765;SDS011;20984;43.508;1.504;2023-04-06T00:30:51;14.32;;;9.65;;
34765;SDS011;20984;43.508;1.504;2023-04-06T00:33:20;13.38;;;9.18;;
34765;SDS011;20984;43.508;1.504;2023-04-06T00:35:47;13.50;;;9.75;;
34765;SDS011;20984;43.508;1.504;2023-04-06T00:38:14;12.55;;;9.45;;
34765;SDS011;20984;43.508;1.504;2023-04-06T00:40:40;14.98;;;10.13;;
34765;SDS011;20984;43.508;1.504;2023-04-06T00:43:07;14.60;;;9.85;;
34765;SDS011;20984;43.508;1.504;2023-04-06T00:45:34;12.48;;;9.25;;
34765;SDS011;20984;43.508;1.504;2023-04-06T00:48:00;14.98;;;10.60;;
34765;SDS011;20984;43.508;1.504;2023-04-06T00:50:26;14.15;;;10.23;;
34765;SDS011;20984;43.508;1.504;2023-04-06T00:52:52;15.32;;;10.88;;
34765;SDS011;20984;43.508;1.504;2023-04-06T00:55:19;15.90;;;10.50;;
34765;SDS011;20984;43.508;1.504;2023-04-06T00:57:45;12.98;;;9.75;;
34765;SDS011;20984;43.508;1.504;2023-04-06T01:00:11;16.75;;;10.32;;
34765;SDS011;20984;43.508;1.504;2023-04-06T01:02:37;14.73;;;9.93;;
34765;SDS011;20984;43.508;1.504;2023-04-06T01:05:03;14.93;;;10.95;;
34765;SDS011;20984;43.508;1.504;2023-04-06T01:07:30;15.02;;;11.60;;
34765;SDS011;20984;43.508;1.504;2023-04-06T01:09:55;11.40;;;9.10;;
34765;SDS011;20984;43.508;1.504;2023-04-06T01:12:21;11.73;;;9.10;;
34765;SDS011;20984;43.508;1.504;2023-04-06T01:14:47;13.65;;;8.77;;
34765;SDS011;20984;43.508;1.504;2023-04-06T01:17:13;14.07;;;9.15;;
34765;SDS011;20984;43.508;1.504;2023-04-06T01:19:39;13.02;;;8.80;;
34765;SDS011;20984;43.508;1.504;2023-04-06T01:22:05;13.93;;;9.48;;
34765;SDS011;20984;43.508;1.504;2023-04-06T01:24:32;13.20;;;9.57;;
34765;SDS011;20984;43.508;1.504;2023-04-06T01:26:58;14.35;;;9.80;;
34765;SDS011;20984;43.508;1.504;2023-04-06T01:29:24;14.23;;;9.20;;
34765;SDS011;20984;43.508;1.504;2023-04-06T01:31:49;12.18;;;9.38;;
34765;SDS011;20984;43.508;1.504;2023-04-06T01:34:15;14.80;;;9.52;;
34765;SDS011;20984;43.508;1.504;2023-04-06T01:36:41;14.43;;;10.02;;
34765;SDS011;20984;43.508;1.504;2023-04-06T01:39:07;12.40;;;9.65;;
34765;SDS011;20984;43.508;1.504;2023-04-06T01:41:33;11.95;;;9.57;;
34765;SDS011;20984;43.508;1.504;2023-04-06T01:43:58;11.52;;;9.25;;
34765;SDS011;20984;43.508;1.504;2023-04-06T01:46:24;11.55;;;9.32;;
34765;SDS011;20984;43.508;1.504;2023-04-06T01:48:50;11.18;;;9.32;;
34765;SDS011;20984;43.508;1.504;2023-04-06T01:51:16;10.95;;;8.90;;
34765;SDS011;20984;43.508;1.504;2023-04-06T01:53:41;15.73;;;9.82;;
34765;SDS011;20984;43.508;1.504;2023-04-06T01:56:07;10.60;;;8.38;;
34765;SDS011;20984;43.508;1.504;2023-04-06T01:58:33;14.68;;;8.35;;
34765;SDS011;20984;43.508;1.504;2023-04-06T02:00:58;11.82;;;9.20;;
34765;SDS011;20984;43.508;1.504;2023-04-06T02:03:24;12.48;;;8.55;;
34765;SDS011;20984;43.508;1.504;2023-04-06T02:05:50;11.32;;;8.30;;
34765;SDS011;20984;43.508;1.504;2023-04-06T02:08:15;14.40;;;8.52;;
34765;SDS011;20984;43.508;1.504;2023-04-06T02:10:41;10.35;;;8.40;;
34765;SDS011;20984;43.508;1.504;2023-04-06T02:13:07;13.85;;;8.38;;
34765;SDS011;20984;43.508;1.504;2023-04-06T02:15:32;9.07;;;8.15;;
34765;SDS011;20984;43.508;1.504;2023-04-06T02:17:58;8.82;;;7.90;;
34765;SDS011;20984;43.508;1.504;2023-04-06T02:20:25;10.07;;;8.77;;
34765;SDS011;20984;43.508;1.504;2023-04-06T02:22:50;12.23;;;9.07;;
34765;SDS011;20984;43.508;1.504;2023-04-06T02:25:16;14.02;;;8.57;;
34765;SDS011;20984;43.508;1.504;2023-04-06T02:27:42;11.30;;;9.68;;
34765;SDS011;20984;43.508;1.504;2023-04-06T02:30:07;13.23;;;9.63;;
34765;SDS011;20984;43.508;1.504;2023-04-06T02:32:33;9.27;;;8.02;;
34765;SDS011;20984;43.508;1.504;2023-04-06T02:34:59;10.10;;;8.68;;
34765;SDS011;20984;43.508;1.504;2023-04-06T02:37:25;11.95;;;8.90;;
34765;SDS011;20984;43.508;1.504;2023-04-06T02:39:51;13.82;;;8.68;;
34765;SDS011;20984;43.508;1.504;2023-04-06T02:42:16;10.48;;;8.30;;
34765;SDS011;20984;43.508;1.504;2023-04-06T02:44:42;11.35;;;8.75;;
34765;SDS011;20984;43.508;1.504;2023-04-06T02:47:08;10.68;;;8.93;;
34765;SDS011;20984;43.508;1.504;2023-04-06T02:49:34;10.30;;;8.57;;
34765;SDS011;20984;43.508;1.504;2023-04-06T02:52:00;13.35;;;7.90;;
34765;SDS011;20984;43.508;1.504;2023-04-06T02:54:27;8.73;;;7.82;;
34765;SDS011;20984;43.508;1.504;2023-04-06T02:56:52;9.90;;;8.40;;
34765;SDS011;20984;43.508;1.504;2023-04-06T02:59:18;11.10;;;7.72;;
34765;SDS011;20984;43.508;1.504;2023-04-06T03:01:43;11.68;;;8.68;;
34765;SDS011;20984;43.508;1.504;2023-04-06T03:04:09;9.65;;;8.43;;
34765;SDS011;20984;43.508;1.504;2023-04-06T03:06:35;12.32;;;8.15;;
34765;SDS011;20984;43.508;1.504;2023-04-06T03:09:01;9.13;;;7.60;;
34765;SDS011;20984;43.508;1.504;2023-04-06T03:11:27;9.13;;;8.10;;
34765;SDS011;20984;43.508;1.504;2023-04-06T03:13:53;11.35;;;8.27;;
34765;SDS011;20984;43.508;1.504;2023-04-06T03:16:18;9.90;;;8.48;;
34765;SDS011;20984;43.508;1.504;2023-04-06T03:18:44;10.43;;;7.90;;
34765;SDS011;20984;43.508;1.504;2023-04-06T03:21:11;10.07;;;8.13;;
34765;SDS011;20984;43.508;1.504;2023-04-06T03:23:38;11.23;;;7.78;;
34765;SDS011;20984;43.508;1.504;2023-04-06T03:26:03;8.32;;;7.53;;
34765;SDS011;20984;43.508;1.504;2023-04-06T03:28:30;10.80;;;7.45;;
34765;SDS011;20984;43.508;1.504;2023-04-06T03:30:56;8.57;;;6.30;;
34765;SDS011;20984;43.508;1.504;2023-04-06T03:33:22;6.70;;;6.10;;
34765;SDS011;20984;43.508;1.504;2023-04-06T03:35:47;8.30;;;7.07;;
34765;SDS011;20984;43.508;1.504;2023-04-06T03:38:13;11.93;;;7.95;;
34765;SDS011;20984;43.508;1.504;2023-04-06T03:40:39;8.88;;;7.30;;
34765;SDS011;20984;43.508;1.504;2023-04-06T03:43:05;7.20;;;6.50;;
34765;SDS011;20984;43.508;1.504;2023-04-06T03:45:31;8.60;;;7.55;;
34765;SDS011;20984;43.508;1.504;2023-04-06T03:47:56;8.57;;;7.28;;
34765;SDS011;20984;43.508;1.504;2023-04-06T03:50:22;7.95;;;7.13;;
34765;SDS011;20984;43.508;1.504;2023-04-06T03:52:47;8.20;;;6.75;;
34765;SDS011;20984;43.508;1.504;2023-04-06T03:55:13;8.57;;;6.78;;
34765;SDS011;20984;43.508;1.504;2023-04-06T03:57:39;6.55;;;5.90;;
34765;SDS011;20984;43.508;1.504;2023-04-06T04:00:06;9.93;;;6.80;;
34765;SDS011;20984;43.508;1.504;2023-04-06T04:02:32;8.82;;;6.72;;
34765;SDS011;20984;43.508;1.504;2023-04-06T04:04:58;8.40;;;7.25;;
34765;SDS011;20984;43.508;1.504;2023-04-06T04:07:24;10.73;;;7.05;;
34765;SDS011;20984;43.508;1.504;2023-04-06T04:09:50;14.55;;;7.38;;
34765;SDS011;20984;43.508;1.504;2023-04-06T04:12:15;8.48;;;6.78;;
34765;SDS011;20984;43.508;1.504;2023-04-06T04:14:41;7.53;;;6.72;;
34765;SDS011;20984;43.508;1.504;2023-04-06T04:17:08;10.57;;;7.57;;
34765;SDS011;20984;43.508;1.504;2023-04-06T04:19:34;9.90;;;8.50;;
34765;SDS011;20984;43.508;1.504;2023-04-06T04:22:00;10.73;;;7.72;;
34765;SDS011;20984;43.508;1.504;2023-04-06T04:24:25;12.23;;;7.80;;
34765;SDS011;20984;43.508;1.504;2023-04-06T04:26:51;9.50;;;7.95;;
34765;SDS011;20984;43.508;1.504;2023-04-06T04:29:17;16.42;;;7.63;;
34765;SDS011;20984;43.508;1.504;2023-04-06T04:31:46;9.85;;;7.72;;
34765;SDS011;20984;43.508;1.504;2023-04-06T04:34:12;8.82;;;7.40;;
34765;SDS011;20984;43.508;1.504;2023-04-06T04:36:37;8.85;;;7.60;;
34765;SDS011;20984;43.508;1.504;2023-04-06T04:39:03;11.50;;;7.78;;
34765;SDS011;20984;43.508;1.504;2023-04-06T04:41:29;12.55;;;8.00;;
34765;SDS011;20984;43.508;1.504;2023-04-06T04:43:55;13.70;;;8.40;;
34765;SDS011;20984;43.508;1.504;2023-04-06T04:46:20;11.25;;;7.13;;
34765;SDS011;20984;43.508;1.504;2023-04-06T04:48:46;8.73;;;7.03;;
34765;SDS011;20984;43.508;1.504;2023-04-06T04:51:12;9.35;;;7.13;;
34765;SDS011;20984;43.508;1.504;2023-04-06T04:53:37;10.93;;;7.65;;
34765;SDS011;20984;43.508;1.504;2023-04-06T04:56:03;8.40;;;7.22;;
34765;SDS011;20984;43.508;1.504;2023-04-06T04:58:29;14.05;;;7.65;;
34765;SDS011;20984;43.508;1.504;2023-04-06T05:00:55;10.52;;;7.70;;
34765;SDS011;20984;43.508;1.504;2023-04-06T05:03:22;11.55;;;8.02;;
34765;SDS011;20984;43.508;1.504;2023-04-06T05:05:49;11.57;;;9.40;;
34765;SDS011;20984;43.508;1.504;2023-04-06T05:08:15;13.40;;;10.73;;
34765;SDS011;20984;43.508;1.504;2023-04-06T05:10:41;12.45;;;7.82;;
34765;SDS011;20984;43.508;1.504;2023-04-06T05:13:07;9.90;;;7.82;;
34765;SDS011;20984;43.508;1.504;2023-04-06T05:15:33;9.20;;;7.45;;
34765;SDS011;20984;43.508;1.504;2023-04-06T05:18:05;11.82;;;8.05;;
34765;SDS011;20984;43.508;1.504;2023-04-06T05:20:32;11.43;;;7.50;;
34765;SDS011;20984;43.508;1.504;2023-04-06T05:22:59;10.73;;;7.85;;
34765;SDS011;20984;43.508;1.504;2023-04-06T05:25:25;8.57;;;7.18;;
34765;SDS011;20984;43.508;1.504;2023-04-06T05:27:51;16.08;;;8.20;;
34765;SDS011;20984;43.508;1.504;2023-04-06T05:30:17;10.70;;;7.40;;
34765;SDS011;20984;43.508;1.504;2023-04-06T05:32:43;9.57;;;7.07;;
34765;SDS011;20984;43.508;1.504;2023-04-06T05:35:09;13.15;;;7.70;;
34765;SDS011;20984;43.508;1.504;2023-04-06T05:37:36;8.43;;;7.35;;
34765;SDS011;20984;43.508;1.504;2023-04-06T05:40:02;11.25;;;8.30;;
34765;SDS011;20984;43.508;1.504;2023-04-06T05:42:35;8.88;;;7.18;;
34765;SDS011;20984;43.508;1.504;2023-04-06T05:45:02;11.15;;;7.82;;
34765;SDS011;20984;43.508;1.504;2023-04-06T05:47:29;12.77;;;8.32;;
34765;SDS011;20984;43.508;1.504;2023-04-06T05:49:55;10.82;;;7.95;;
34765;SDS011;20984;43.508;1.504;2023-04-06T05:52:20;8.27;;;7.43;;
34765;SDS011;20984;43.508;1.504;2023-04-06T05:54:46;9.45;;;8.02;;
34765;SDS011;20984;43.508;1.504;2023-04-06T05:57:12;9.50;;;7.63;;
34765;SDS011;20984;43.508;1.504;2023-04-06T05:59:37;9.95;;;7.97;;
34765;SDS011;20984;43.508;1.504;2023-04-06T06:02:03;9.90;;;7.95;;
34765;SDS011;20984;43.508;1.504;2023-04-06T06:04:30;11.15;;;8.45;;
34765;SDS011;20984;43.508;1.504;2023-04-06T06:06:56;11.13;;;8.52;;
34765;SDS011;20984;43.508;1.504;2023-04-06T06:09:21;10.30;;;8.10;;
34765;SDS011;20984;43.508;1.504;2023-04-06T06:11:48;10.95;;;7.07;;
34765;SDS011;20984;43.508;1.504;2023-04-06T06:14:14;9.52;;;7.72;;
34765;SDS011;20984;43.508;1.504;2023-04-06T06:16:40;9.25;;;7.30;;
34765;SDS011;20984;43.508;1.504;2023-04-06T06:19:06;12.40;;;7.25;;
34765;SDS011;20984;43.508;1.504;2023-04-06T06:21:31;10.57;;;7.43;;
34765;SDS011;20984;43.508;1.504;2023-04-06T06:23:57;10.25;;;6.90;;
34765;SDS011;20984;43.508;1.504;2023-04-06T06:26:22;10.50;;;7.68;;
34765;SDS011;20984;43.508;1.504;2023-04-06T06:28:48;8.65;;;7.75;;
34765;SDS011;20984;43.508;1.504;2023-04-06T06:31:14;20.88;;;7.85;;
34765;SDS011;20984;43.508;1.504;2023-04-06T06:33:40;13.20;;;8.88;;
34765;SDS011;20984;43.508;1.504;2023-04-06T06:36:05;11.27;;;9.18;;
34765;SDS011;20984;43.508;1.504;2023-04-06T06:38:31;18.98;;;9.32;;
34765;SDS011;20984;43.508;1.504;2023-04-06T06:40:57;13.90;;;8.85;;
34765;SDS011;20984;43.508;1.504;2023-04-06T06:43:22;11.30;;;8.77;;
34765;SDS011;20984;43.508;1.504;2023-04-06T06:45:48;12.13;;;9.02;;
34765;SDS011;20984;43.508;1.504;2023-04-06T06:48:15;16.33;;;8.82;;
34765;SDS011;20984;43.508;1.504;2023-04-06T06:50:40;9.70;;;8.05;;
34765;SDS011;20984;43.508;1.504;2023-04-06T06:53:06;9.27;;;8.18;;
34765;SDS011;20984;43.508;1.504;2023-04-06T06:55:32;8.73;;;7.63;;
34765;SDS011;20984;43.508;1.504;2023-04-06T06:57:57;11.88;;;8.10;;
34765;SDS011;20984;43.508;1.504;2023-04-06T07:00:23;9.15;;;7.35;;
34765;SDS011;20984;43.508;1.504;2023-04-06T07:02:49;12.05;;;7.07;;
34765;SDS011;20984;43.508;1.504;2023-04-06T07:05:15;24.00;;;7.57;;
34765;SDS011;20984;43.508;1.504;2023-04-06T07:07:41;10.90;;;7.13;;
34765;SDS011;20984;43.508;1.504;2023-04-06T07:10:07;12.77;;;7.50;;
34765;SDS011;20984;43.508;1.504;2023-04-06T07:12:33;8.63;;;6.90;;
34765;SDS011;20984;43.508;1.504;2023-04-06T07:14:59;9.30;;;7.47;;
34765;SDS011;20984;43.508;1.504;2023-04-06T07:17:25;9.00;;;6.60;;
34765;SDS011;20984;43.508;1.504;2023-04-06T07:19:51;14.25;;;6.75;;
34765;SDS011;20984;43.508;1.504;2023-04-06T07:22:16;11.45;;;7.70;;
34765;SDS011;20984;43.508;1.504;2023-04-06T07:24:42;8.50;;;7.13;;
34765;SDS011;20984;43.508;1.504;2023-04-06T07:27:08;11.45;;;7.22;;
34765;SDS011;20984;43.508;1.504;2023-04-06T07:29:34;15.93;;;8.50;;
34765;SDS011;20984;43.508;1.504;2023-04-06T07:31:59;11.85;;;8.95;;
34765;SDS011;20984;43.508;1.504;2023-04-06T07:34:25;15.70;;;7.60;;
34765;SDS011;20984;43.508;1.504;2023-04-06T07:36:51;10.52;;;7.88;;
34765;SDS011;20984;43.508;1.504;2023-04-06T07:39:18;16.90;;;7.22;;
34765;SDS011;20984;43.508;1.504;2023-04-06T07:41:45;22.17;;;9.25;;
34765;SDS011;20984;43.508;1.504;2023-04-06T07:44:10;10.98;;;7.95;;
34765;SDS011;20984;43.508;1.504;2023-04-06T07:46:36;11.75;;;7.50;;
34765;SDS011;20984;43.508;1.504;2023-04-06T07:49:02;13.90;;;9.00;;
34765;SDS011;20984;43.508;1.504;2023-04-06T07:51:28;10.68;;;7.22;;
34765;SDS011;20984;43.508;1.504;2023-04-06T07:53:53;15.02;;;7.40;;
34765;SDS011;20984;43.508;1.504;2023-04-06T07:56:19;13.70;;;7.28;;
34765;SDS011;20984;43.508;1.504;2023-04-06T07:58:45;12.70;;;8.80;;
34765;SDS011;20984;43.508;1.504;2023-04-06T08:01:11;12.50;;;6.90;;
34765;SDS011;20984;43.508;1.504;2023-04-06T08:03:37;18.80;;;7.90;;
34765;SDS011;20984;43.508;1.504;2023-04-06T08:06:03;13.02;;;6.68;;
34765;SDS011;20984;43.508;1.504;2023-04-06T08:08:30;10.93;;;6.75;;
34765;SDS011;20984;43.508;1.504;2023-04-06T08:10:56;7.07;;;6.18;;
34765;SDS011;20984;43.508;1.504;2023-04-06T08:13:22;17.95;;;6.43;;
34765;SDS011;20984;43.508;1.504;2023-04-06T08:15:47;10.93;;;6.03;;
34765;SDS011;20984;43.508;1.504;2023-04-06T08:18:13;9.63;;;6.38;;
34765;SDS011;20984;43.508;1.504;2023-04-06T08:20:39;6.35;;;4.70;;
34765;SDS011;20984;43.508;1.504;2023-04-06T08:23:05;6.32;;;4.15;;
34765;SDS011;20984;43.508;1.504;2023-04-06T08:25:33;8.07;;;5.05;;
34765;SDS011;20984;43.508;1.504;2023-04-06T08:28:00;7.50;;;4.63;;
34765;SDS011;20984;43.508;1.504;2023-04-06T08:30:26;9.73;;;5.68;;
34765;SDS011;20984;43.508;1.504;2023-04-06T08:32:51;7.30;;;4.60;;
34765;SDS011;20984;43.508;1.504;2023-04-06T08:35:17;15.35;;;5.13;;
34765;SDS011;20984;43.508;1.504;2023-04-06T08:37:43;12.68;;;5.20;;
34765;SDS011;20984;43.508;1.504;2023-04-06T08:40:09;7.60;;;5.18;;
34765;SDS011;20984;43.508;1.504;2023-04-06T08:42:39;7.22;;;4.38;;
34765;SDS011;20984;43.508;1.504;2023-04-06T08:45:06;6.55;;;4.20;;
34765;SDS011;20984;43.508;1.504;2023-04-06T08:47:34;5.35;;;4.30;;
34765;SDS011;20984;43.508;1.504;2023-04-06T08:50:03;6.22;;;4.20;;
34765;SDS011;20984;43.508;1.504;2023-04-06T08:52:29;9.75;;;4.28;;
34765;SDS011;20984;43.508;1.504;2023-04-06T08:54:57;8.07;;;4.18;;
34765;SDS011;20984;43.508;1.504;2023-04-06T08:57:23;8.48;;;4.53;;
34765;SDS011;20984;43.508;1.504;2023-04-06T08:59:50;5.72;;;4.45;;
34765;SDS011;20984;43.508;1.504;2023-04-06T09:02:17;7.50;;;4.72;;
34765;SDS011;20984;43.508;1.504;2023-04-06T09:04:45;7.65;;;4.82;;
34765;SDS011;20984;43.508;1.504;2023-04-06T09:07:13;7.35;;;4.65;;
34765;SDS011;20984;43.508;1.504;2023-04-06T09:09:40;6.90;;;5.13;;
34765;SDS011;20984;43.508;1.504;2023-04-06T09:12:21;8.80;;;5.30;;
34765;SDS011;20984;43.508;1.504;2023-04-06T09:14:54;6.57;;;4.88;;
34765;SDS011;20984;43.508;1.504;2023-04-06T09:17:25;9.80;;;5.35;;
34765;SDS011;20984;43.508;1.504;2023-04-06T09:19:52;10.23;;;5.88;;
34765;SDS011;20984;43.508;1.504;2023-04-06T09:22:18;9.13;;;5.53;;
34765;SDS011;20984;43.508;1.504;2023-04-06T09:24:49;12.07;;;5.35;;
34765;SDS011;20984;43.508;1.504;2023-04-06T09:29:41;8.88;;;5.15;;
34765;SDS011;20984;43.508;1.504;2023-04-06T09:32:08;12.55;;;5.68;;
34765;SDS011;20984;43.508;1.504;2023-04-06T09:34:37;9.73;;;5.22;;
34765;SDS011;20984;43.508;1.504;2023-04-06T09:37:15;10.52;;;5.60;;
34765;SDS011;20984;43.508;1.504;2023-04-06T09:39:43;7.30;;;5.03;;
34765;SDS011;20984;43.508;1.504;2023-04-06T09:42:09;17.63;;;6.20;;
34765;SDS011;20984;43.508;1.504;2023-04-06T09:44:35;9.10;;;5.82;;
34765;SDS011;20984;43.508;1.504;2023-04-06T09:47:00;11.43;;;6.07;;
34765;SDS011;20984;43.508;1.504;2023-04-06T09:49:31;7.47;;;5.43;;
34765;SDS011;20984;43.508;1.504;2023-04-06T09:51:59;10.20;;;5.50;;
34765;SDS011;20984;43.508;1.504;2023-04-06T09:54:30;12.65;;;5.50;;
34765;SDS011;20984;43.508;1.504;2023-04-06T10:02:17;11.95;;;5.30;;
34765;SDS011;20984;43.508;1.504;2023-04-06T10:07:32;8.00;;;5.68;;
34765;SDS011;20984;43.508;1.504;2023-04-06T10:09:58;14.02;;;6.07;;
34765;SDS011;20984;43.508;1.504;2023-04-06T10:12:27;6.40;;;4.53;;
34765;SDS011;20984;43.508;1.504;2023-04-06T10:14:53;9.68;;;4.88;;
34765;SDS011;20984;43.508;1.504;2023-04-06T10:17:19;8.30;;;5.28;;
34765;SDS011;20984;43.508;1.504;2023-04-06T10:22:51;9.95;;;5.05;;
34765;SDS011;20984;43.508;1.504;2023-04-06T10:25:29;14.05;;;5.60;;
34765;SDS011;20984;43.508;1.504;2023-04-06T10:28:05;11.00;;;5.88;;
34765;SDS011;20984;43.508;1.504;2023-04-06T10:30:35;7.63;;;4.80;;
34765;SDS011;20984;43.508;1.504;2023-04-06T10:33:13;9.65;;;4.43;;
34765;SDS011;20984;43.508;1.504;2023-04-06T10:35:40;6.45;;;4.70;;
34765;SDS011;20984;43.508;1.504;2023-04-06T10:38:05;10.10;;;5.05;;
34765;SDS011;20984;43.508;1.504;2023-04-06T10:40:32;8.80;;;4.43;;
34765;SDS011;20984;43.508;1.504;2023-04-06T10:43:09;9.03;;;4.77;;
34765;SDS011;20984;43.508;1.504;2023-04-06T10:45:36;6.13;;;4.80;;
34765;SDS011;20984;43.508;1.504;2023-04-06T10:49:09;9.35;;;4.47;;
34765;SDS011;20984;43.508;1.504;2023-04-06T10:51:11;12.68;;;5.22;;
34765;SDS011;20984;43.508;1.504;2023-04-06T10:53:38;10.98;;;4.93;;
34765;SDS011;20984;43.508;1.504;2023-04-06T10:56:16;15.65;;;5.20;;
34765;SDS011;20984;43.508;1.504;2023-04-06T10:58:50;8.02;;;5.00;;
34765;SDS011;20984;43.508;1.504;2023-04-06T11:01:18;5.95;;;4.13;;
34765;SDS011;20984;43.508;1.504;2023-04-06T11:03:46;6.68;;;4.38;;
34765;SDS011;20984;43.508;1.504;2023-04-06T11:06:24;10.40;;;4.20;;
34765;SDS011;20984;43.508;1.504;2023-04-06T11:08:52;7.20;;;4.65;;
34765;SDS011;20984;43.508;1.504;2023-04-06T11:11:19;6.97;;;3.88;;
34765;SDS011;20984;43.508;1.504;2023-04-06T11:13:49;6.38;;;3.90;;
34765;SDS011;20984;43.508;1.504;2023-04-06T11:16:22;7.43;;;4.15;;
34765;SDS011;20984;43.508;1.504;2023-04-06T11:18:56;7.72;;;4.65;;
34765;SDS011;20984;43.508;1.504;2023-04-06T11:21:39;4.05;;;3.38;;
34765;SDS011;20984;43.508;1.504;2023-04-06T11:24:10;10.30;;;3.90;;
34765;SDS011;20984;43.508;1.504;2023-04-06T11:26:38;5.72;;;3.70;;
34765;SDS011;20984;43.508;1.504;2023-04-06T11:29:05;6.15;;;3.53;;
34765;SDS011;20984;43.508;1.504;2023-04-06T11:31:31;5.10;;;3.20;;
34765;SDS011;20984;43.508;1.504;2023-04-06T11:34:02;6.55;;;3.25;;
34765;SDS011;20984;43.508;1.504;2023-04-06T11:36:34;4.78;;;3.40;;
34765;SDS011;20984;43.508;1.504;2023-04-06T11:39:02;6.65;;;3.95;;
34765;SDS011;20984;43.508;1.504;2023-04-06T11:41:28;5.18;;;3.13;;
34765;SDS011;20984;43.508;1.504;2023-04-06T11:43:55;5.40;;;3.17;;
34765;SDS011;20984;43.508;1.504;2023-04-06T11:46:21;6.47;;;3.40;;
34765;SDS011;20984;43.508;1.504;2023-04-06T11:48:47;6.93;;;3.40;;
34765;SDS011;20984;43.508;1.504;2023-04-06T11:51:12;7.35;;;3.92;;
34765;SDS011;20984;43.508;1.504;2023-04-06T11:53:48;7.00;;;3.38;;
34765;SDS011;20984;43.508;1.504;2023-04-06T11:56:24;4.70;;;3.33;;
34765;SDS011;20984;43.508;1.504;2023-04-06T11:58:57;3.83;;;2.90;;
34765;SDS011;20984;43.508;1.504;2023-04-06T12:01:24;5.45;;;2.90;;
34765;SDS011;20984;43.508;1.504;2023-04-06T12:03:51;5.95;;;2.95;;
34765;SDS011;20984;43.508;1.504;2023-04-06T12:06:17;3.90;;;2.80;;
34765;SDS011;20984;43.508;1.504;2023-04-06T12:08:43;7.90;;;3.78;;
34765;SDS011;20984;43.508;1.504;2023-04-06T12:11:12;4.22;;;3.13;;
34765;SDS011;20984;43.508;1.504;2023-04-06T12:13:37;4.63;;;2.80;;
34765;SDS011;20984;43.508;1.504;2023-04-06T12:16:03;16.85;;;3.17;;
34765;SDS011;20984;43.508;1.504;2023-04-06T12:18:30;3.38;;;2.53;;
34765;SDS011;20984;43.508;1.504;2023-04-06T12:20:56;6.60;;;2.90;;
34765;SDS011;20984;43.508;1.504;2023-04-06T12:23:22;5.15;;;2.75;;
34765;SDS011;20984;43.508;1.504;2023-04-06T12:25:47;4.93;;;2.53;;
34765;SDS011;20984;43.508;1.504;2023-04-06T12:28:13;3.95;;;2.58;;
34765;SDS011;20984;43.508;1.504;2023-04-06T12:30:39;3.40;;;2.33;;
34765;SDS011;20984;43.508;1.504;2023-04-06T12:33:06;11.77;;;2.80;;
34765;SDS011;20984;43.508;1.504;2023-04-06T12:35:34;4.10;;;2.80;;
34765;SDS011;20984;43.508;1.504;2023-04-06T12:38:01;5.53;;;2.95;;
34765;SDS011;20984;43.508;1.504;2023-04-06T12:40:27;5.32;;;2.60;;
34765;SDS011;20984;43.508;1.504;2023-04-06T12:42:53;3.35;;;2.38;;
34765;SDS011;20984;43.508;1.504;2023-04-06T12:45:18;5.88;;;2.35;;
34765;SDS011;20984;43.508;1.504;2023-04-06T12:47:44;4.00;;;2.53;;
34765;SDS011;20984;43.508;1.504;2023-04-06T12:50:10;4.22;;;2.20;;
34765;SDS011;20984;43.508;1.504;2023-04-06T12:52:35;8.25;;;1.80;;
34765;SDS011;20984;43.508;1.504;2023-04-06T12:55:04;4.28;;;2.20;;
34765;SDS011;20984;43.508;1.504;2023-04-06T12:57:30;5.45;;;2.75;;
34765;SDS011;20984;43.508;1.504;2023-04-06T12:59:56;4.70;;;2.30;;
34765;SDS011;20984;43.508;1.504;2023-04-06T13:02:23;5.72;;;2.75;;
34765;SDS011;20984;43.508;1.504;2023-04-06T13:04:49;4.78;;;2.53;;
34765;SDS011;20984;43.508;1.504;2023-04-06T13:07:15;4.40;;;2.30;;
34765;SDS011;20984;43.508;1.504;2023-04-06T13:09:41;6.57;;;2.55;;
34765;SDS011;20984;43.508;1.504;2023-04-06T13:12:07;4.72;;;2.15;;
34765;SDS011;20984;43.508;1.504;2023-04-06T13:14:32;4.25;;;2.50;;
34765;SDS011;20984;43.508;1.504;2023-04-06T13:16:58;4.47;;;2.30;;
34765;SDS011;20984;43.508;1.504;2023-04-06T13:19:24;4.68;;;2.50;;
34765;SDS011;20984;43.508;1.504;2023-04-06T13:21:50;4.30;;;2.50;;
34765;SDS011;20984;43.508;1.504;2023-04-06T13:24:16;5.30;;;2.35;;
34765;SDS011;20984;43.508;1.504;2023-04-06T13:26:42;4.40;;;1.70;;
34765;SDS011;20984;43.508;1.504;2023-04-06T13:29:07;2.35;;;2.00;;
34765;SDS011;20984;43.508;1.504;2023-04-06T13:31:33;12.18;;;2.03;;
34765;SDS011;20984;43.508;1.504;2023-04-06T13:33:58;6.60;;;2.33;;
34765;SDS011;20984;43.508;1.504;2023-04-06T13:36:25;4.40;;;1.90;;
34765;SDS011;20984;43.508;1.504;2023-04-06T13:38:51;3.42;;;1.98;;
34765;SDS011;20984;43.508;1.504;2023-04-06T13:41:20;3.22;;;1.92;;
34765;SDS011;20984;43.508;1.504;2023-04-06T13:43:47;3.63;;;2.13;;
34765;SDS011;20984;43.508;1.504;2023-04-06T13:46:13;4.63;;;1.58;;
34765;SDS011;20984;43.508;1.504;2023-04-06T13:48:38;5.10;;;2.10;;
34765;SDS011;20984;43.508;1.504;2023-04-06T13:51:10;5.65;;;2.00;;
34765;SDS011;20984;43.508;1.504;2023-04-06T13:53:36;3.10;;;1.95;;
34765;SDS011;20984;43.508;1.504;2023-04-06T13:56:02;2.92;;;1.60;;
34765;SDS011;20984;43.508;1.504;2023-04-06T13:58:28;2.22;;;1.60;;
34765;SDS011;20984;43.508;1.504;2023-04-06T14:00:53;2.17;;;1.50;;
34765;SDS011;20984;43.508;1.504;2023-04-06T14:03:19;2.53;;;1.77;;
34765;SDS011;20984;43.508;1.504;2023-04-06T14:05:45;1.88;;;1.52;;
34765;SDS011;20984;43.508;1.504;2023-04-06T14:08:11;3.25;;;1.52;;
34765;SDS011;20984;43.508;1.504;2023-04-06T14:10:37;1.77;;;1.42;;
34765;SDS011;20984;43.508;1.504;2023-04-06T14:13:04;3.30;;;2.00;;
34765;SDS011;20984;43.508;1.504;2023-04-06T14:15:29;3.63;;;2.15;;
34765;SDS011;20984;43.508;1.504;2023-04-06T14:17:55;1.55;;;1.40;;
34765;SDS011;20984;43.508;1.504;2023-04-06T14:20:21;4.53;;;1.90;;
34765;SDS011;20984;43.508;1.504;2023-04-06T14:22:47;2.38;;;1.70;;
34765;SDS011;20984;43.508;1.504;2023-04-06T14:25:14;7.68;;;2.55;;
34765;SDS011;20984;43.508;1.504;2023-04-06T14:27:41;2.85;;;1.95;;
34765;SDS011;20984;43.508;1.504;2023-04-06T14:30:07;2.25;;;1.88;;
34765;SDS011;20984;43.508;1.504;2023-04-06T14:32:33;2.70;;;1.95;;
34765;SDS011;20984;43.508;1.504;2023-04-06T14:35:00;2.50;;;1.73;;
34765;SDS011;20984;43.508;1.504;2023-04-06T14:37:26;3.13;;;2.33;;
34765;SDS011;20984;43.508;1.504;2023-04-06T14:39:52;3.35;;;1.90;;
34765;SDS011;20984;43.508;1.504;2023-04-06T14:42:17;2.10;;;1.45;;
34765;SDS011;20984;43.508;1.504;2023-04-06T14:44:43;4.65;;;1.80;;
34765;SDS011;20984;43.508;1.504;2023-04-06T14:47:10;3.65;;;1.70;;
34765;SDS011;20984;43.508;1.504;2023-04-06T14:49:36;2.95;;;1.63;;
34765;SDS011;20984;43.508;1.504;2023-04-06T14:52:02;5.00;;;1.50;;